Time;durP1;ratioP1;P1;durP2;ratioP2;P2;SDS_P1;SDS_P2;PMS_P1;PMS_P2;Temp;Humidity;BMP_temperature;BMP_pressure;BME280_temperature;BME280_humidity;BME280_pressure;Samples;Min_cycle;Max_cycle;Signal;HPM_P1;HPM_P2
2022/02/13 00:00:06;;;;;;;15.53;6.23;;;;;;;-142.75;100.00;78753.94;5052174;28;20029;-68
2022/02/13 00:02:32;;;;;;;10.60;5.60;;;;;;;-142.75;100.00;78744.09;5051849;28;20021;-68
2022/02/13 00:04:57;;;;;;;13.77;6.40;;;;;;;-142.75;100.00;78748.03;5052196;28;20025;-68
2022/02/13 00:07:22;;;;;;;12.93;6.80;;;;;;;-142.75;100.00;78740.13;5052362;28;20478;-67
2022/02/13 00:09:48;;;;;;;13.67;6.00;;;;;;;-142.75;100.00;78730.28;5064240;23;20326;-68
2022/02/13 00:12:14;;;;;;;;;;;;;;;-142.75;100.00;78748.03;5072033;28;20511;-68
2022/02/13 00:14:39;;;;;;;10.83;6.00;;;;;;;-142.75;100.00;78744.09;5072735;28;19913;-68
2022/02/13 00:17:04;;;;;;;12.50;6.30;;;;;;;-142.75;100.00;78732.25;5071800;28;20032;-70
2022/02/13 00:19:29;;;;;;;13.87;6.43;;;;;;;-142.75;100.00;78726.34;5072632;28;20275;-68
2022/02/13 00:21:55;;;;;;;13.03;6.13;;;;;;;-142.75;100.00;78710.59;5072807;28;20028;-68
2022/02/13 00:24:20;;;;;;;13.53;5.80;;;;;;;-142.75;100.00;78698.78;5072882;28;20373;-68
2022/02/13 00:26:46;;;;;;;15.60;6.35;;;;;;;-142.75;100.00;78712.56;5068862;28;20405;-68
2022/02/13 00:29:11;;;;;;;14.77;7.13;;;;;;;-142.75;100.00;78706.66;5072303;28;20029;-68
2022/02/13 00:31:36;;;;;;;15.35;6.47;;;;;;;-142.75;100.00;78708.63;5071581;28;20034;-68
2022/02/13 00:34:02;;;;;;;13.73;6.25;;;;;;;-142.75;100.00;78700.75;5071338;28;20030;-68
2022/02/13 00:36:29;;;;;;;11.13;6.30;;;;;;;-142.75;100.00;78700.75;5072640;28;20020;-68
2022/02/13 00:38:54;;;;;;;13.20;6.00;;;;;;;-142.75;100.00;78696.81;5072219;28;20029;-66
2022/02/13 00:41:20;;;;;;;16.42;6.68;;;;;;;-142.75;100.00;78704.69;5072543;28;20085;-68
2022/02/13 00:43:45;;;;;;;14.68;6.57;;;;;;;-142.75;100.00;78688.94;5071271;28;20138;-68
2022/02/13 00:46:10;;;;;;;14.93;6.10;;;;;;;-142.75;100.00;78690.91;5071092;28;20394;-68
2022/02/13 00:48:35;;;;;;;16.17;5.47;;;;;;;-142.75;100.00;78686.97;5072063;28;20033;-68
2022/02/13 00:51:01;;;;;;;13.77;6.30;;;;;;;-142.75;100.00;78683.03;5072570;28;20373;-68
2022/02/13 00:53:26;;;;;;;11.17;5.70;;;;;;;-142.75;100.00;78685.00;5071013;28;20286;-69
2022/02/13 00:55:51;;;;;;;13.05;6.07;;;;;;;-142.75;100.00;78665.28;5071014;28;20590;-67
2022/02/13 00:58:17;;;;;;;19.17;6.97;;;;;;;-142.75;100.00;78665.28;5070468;28;20112;-68
2022/02/13 01:00:42;;;;;;;13.03;6.30;;;;;;;-142.75;100.00;78677.13;5072159;28;20049;-68
2022/02/13 01:03:07;;;;;;;16.30;5.97;;;;;;;-142.75;100.00;78665.28;5070525;28;20271;-68
2022/02/13 01:05:32;;;;;;;15.93;6.13;;;;;;;-142.75;100.00;78653.47;5070841;28;20020;-68
2022/02/13 01:07:58;;;;;;;13.77;6.13;;;;;;;-142.75;100.00;78651.50;5071589;28;20086;-68
2022/02/13 01:10:23;;;;;;;18.27;7.47;;;;;;;-142.75;100.00;78657.41;5071834;28;20040;-68
2022/02/13 01:12:48;;;;;;;13.32;6.43;;;;;;;-142.75;100.00;78655.44;5070578;28;20281;-68
2022/02/13 01:15:15;;;;;;;13.23;6.03;;;;;;;-142.75;100.00;78641.66;5071825;28;20044;-68
2022/02/13 01:17:40;;;;;;;13.33;6.73;;;;;;;-142.75;100.00;78631.81;5071856;28;20031;-69
2022/02/13 01:20:07;;;;;;;14.50;6.10;;;;;;;-142.75;100.00;78637.72;5070177;28;20029;-68
2022/02/13 01:22:32;;;;;;;16.02;7.03;;;;;;;-142.75;100.00;78631.81;5071788;28;20147;-68
2022/02/13 01:24:57;;;;;;;13.63;6.45;;;;;;;-142.75;100.00;78627.88;5071748;28;20124;-67
2022/02/13 01:27:22;;;;;;;16.33;6.63;;;;;;;-142.75;100.00;78618.03;5070274;28;20393;-68
2022/02/13 01:29:48;;;;;;;12.17;5.60;;;;;;;-142.75;100.00;78621.97;5052729;28;20692;-68
2022/02/13 01:32:13;;;;;;;13.07;6.30;;;;;;;-142.75;100.00;78621.97;5051821;28;20267;-68
2022/02/13 01:34:38;;;;;;;12.70;6.60;;;;;;;-142.75;100.00;78635.75;5050249;28;20268;-67
2022/02/13 01:37:04;;;;;;;12.23;5.70;;;;;;;-142.75;100.00;78625.91;5051525;28;20346;-67
2022/02/13 01:39:29;;;;;;;16.38;6.43;;;;;;;-142.75;100.00;78631.81;5051179;28;20289;-68
2022/02/13 01:41:55;;;;;;;12.07;6.60;;;;;;;-142.75;100.00;78639.69;5050147;28;20437;-68
2022/02/13 01:44:29;;;;;;;15.40;7.38;;;;;;;-142.75;100.00;78629.84;5051331;28;20020;-68
2022/02/13 01:46:55;;;;;;;15.87;6.83;;;;;;;-142.75;100.00;78629.84;5051207;28;20068;-67
2022/02/13 01:49:21;;;;;;;14.43;7.17;;;;;;;-142.75;100.00;78627.88;5050948;28;20024;-68
2022/02/13 01:51:46;;;;;;;22.45;7.25;;;;;;;-142.75;100.00;78625.91;5049912;28;20070;-68
2022/02/13 01:54:12;;;;;;;13.68;6.57;;;;;;;-142.75;100.00;78637.72;5051270;28;20424;-68
2022/02/13 01:56:38;;;;;;;12.10;6.43;;;;;;;-142.75;100.00;78625.91;5051011;28;20036;-68
2022/02/13 01:59:04;;;;;;;16.27;6.33;;;;;;;-142.75;100.00;78627.88;5051000;28;20025;-68
2022/02/13 02:01:30;;;;;;;11.38;5.97;;;;;;;-142.75;100.00;78623.94;5049741;28;20032;-67
2022/02/13 02:03:55;;;;;;;15.27;6.60;;;;;;;-142.75;100.00;78623.94;5051048;28;20390;-68
2022/02/13 02:06:20;;;;;;;12.00;6.68;;;;;;;-142.75;100.00;78612.13;5049790;28;20032;-66
2022/02/13 02:08:46;;;;;;;21.47;6.43;;;;;;;-142.75;100.00;78618.03;5050430;28;20504;-68
2022/02/13 02:11:11;;;;;;;15.73;6.73;;;;;;;-142.75;100.00;78625.91;5049676;28;20259;-68
2022/02/13 02:13:36;;;;;;;11.48;5.45;;;;;;;-142.75;100.00;78616.06;5050816;28;20438;-68
2022/02/13 02:16:02;;;;;;;18.42;7.55;;;;;;;-142.75;100.00;78616.06;5050275;28;20048;-67
2022/02/13 02:18:27;;;;;;;18.00;5.75;;;;;;;-142.75;100.00;78602.28;5049195;28;20405;-68
2022/02/13 02:20:54;;;;;;;21.47;6.77;;;;;;;-142.75;100.00;78606.22;5049453;28;20116;-68
2022/02/13 02:23:20;;;;;;;13.57;6.87;;;;;;;-142.75;100.00;78604.25;5050684;28;20772;-67
2022/02/13 02:25:45;;;;;;;12.40;5.63;;;;;;;-142.75;100.00;78602.28;5050775;28;20039;-67
2022/02/13 02:28:10;;;;;;;10.45;6.07;;;;;;;-142.75;100.00;78602.28;5049055;28;20037;-68
2022/02/13 02:30:36;;;;;;;13.10;6.20;;;;;;;-142.75;100.00;78604.25;5050594;28;20482;-68
2022/02/13 02:33:01;;;;;;;10.15;5.43;;;;;;;-142.75;100.00;78606.22;5058932;28;20267;-68
2022/02/13 02:35:27;;;;;;;13.20;6.63;;;;;;;-142.75;100.00;78614.09;5069355;28;20492;-68
2022/02/13 02:37:52;;;;;;;10.43;5.78;;;;;;;-142.75;100.00;78606.22;5070304;28;20270;-67
2022/02/13 02:40:18;;;;;;;11.88;6.70;;;;;;;-142.75;100.00;78602.28;5070418;28;20393;-67
2022/02/13 02:42:45;;;;;;;12.98;6.63;;;;;;;-142.75;100.00;78608.19;5070602;28;20029;-68
2022/02/13 02:45:13;;;;;;;10.87;6.10;;;;;;;-142.75;100.00;78598.34;5070500;28;20021;-68
2022/02/13 02:47:39;;;;;;;16.33;6.70;;;;;;;-142.75;100.00;78602.28;5070487;28;21344;-68
2022/02/13 02:50:05;;;;;;;14.18;6.60;;;;;;;-142.75;100.00;78590.47;5070116;28;20025;-68
2022/02/13 02:52:30;;;;;;;16.55;6.35;;;;;;;-142.75;100.00;78590.47;5070550;28;20039;-68
2022/02/13 02:54:55;;;;;;;14.33;7.13;;;;;;;-142.75;100.00;78592.44;5070401;28;20070;-67
2022/02/13 02:57:21;;;;;;;16.17;6.23;;;;;;;-142.75;100.00;78588.50;5070382;28;20707;-66
2022/02/13 02:59:46;;;;;;;15.85;6.50;;;;;;;-142.75;100.00;78590.47;5069882;28;20023;-68
2022/02/13 03:02:11;;;;;;;12.07;6.22;;;;;;;-142.75;100.00;78582.59;5070428;28;20048;-68
2022/02/13 03:04:37;;;;;;;12.93;5.73;;;;;;;-142.75;100.00;78570.75;5069063;28;20067;-68
2022/02/13 03:07:02;;;;;;;13.45;6.60;;;;;;;-142.75;100.00;78570.75;5070391;28;20017;-68
2022/02/13 03:09:27;;;;;;;11.40;6.00;;;;;;;-142.75;100.00;78578.63;5069903;28;20036;-68
2022/02/13 03:11:53;;;;;;;12.90;6.30;;;;;;;-142.75;100.00;78566.81;5068832;28;20074;-67
2022/02/13 03:14:18;;;;;;;12.38;6.28;;;;;;;-142.75;100.00;78570.75;5070249;28;20508;-67
2022/02/13 03:16:43;;;;;;;15.27;6.57;;;;;;;-142.75;100.00;78570.75;5068952;28;20123;-67
2022/02/13 03:19:08;;;;;;;13.05;6.38;;;;;;;-142.75;100.00;78570.75;5069823;28;20019;-68
2022/02/13 03:21:34;;;;;;;17.33;6.30;;;;;;;-142.75;100.00;78558.94;5070118;28;20540;-68
2022/02/13 03:23:59;;;;;;;13.77;7.10;;;;;;;-142.75;100.00;78570.75;5069163;28;20052;-68
2022/02/13 03:26:26;;;;;;;14.73;6.07;;;;;;;-142.75;100.00;78564.84;5070393;28;20289;-68
2022/02/13 03:28:52;;;;;;;15.70;7.13;;;;;;;-142.75;100.00;78556.97;5053512;28;20279;-68
2022/02/13 03:31:18;;;;;;;12.85;7.10;;;;;;;-142.75;100.00;78558.94;5053810;28;20078;-66
2022/02/13 03:33:43;;;;;;;12.38;6.00;;;;;;;-142.75;100.00;78562.88;5053807;28;20025;-67
2022/02/13 03:36:08;;;;;;;14.67;7.40;;;;;;;-142.75;100.00;78566.81;5053756;28;20025;-67
2022/02/13 03:38:33;;;;;;;13.53;6.07;;;;;;;-142.75;100.00;78566.81;5053294;28;20339;-67
2022/02/13 03:40:59;;;;;;;14.57;5.65;;;;;;;-142.75;100.00;78570.75;5053539;28;20787;-68
2022/02/13 03:43:24;;;;;;;13.98;6.32;;;;;;;-142.75;100.00;78543.19;5053555;28;20490;-69
2022/02/13 03:45:49;;;;;;;15.00;6.83;;;;;;;-142.75;100.00;78547.13;5053640;28;20025;-67
2022/02/13 03:48:15;;;;;;;15.87;6.90;;;;;;;-142.75;100.00;78529.41;5053164;28;20282;-68
2022/02/13 03:50:40;;;;;;;11.55;6.00;;;;;;;-142.75;100.00;78543.19;5069388;28;20027;-67
2022/02/13 03:53:05;;;;;;;14.07;6.57;;;;;;;-142.75;100.00;78547.13;5072208;28;20020;-67
2022/02/13 03:55:31;;;;;;;16.20;6.47;;;;;;;-142.75;100.00;78535.31;5071955;28;20082;-67
2022/02/13 03:57:56;;;;;;;16.23;7.22;;;;;;;-142.75;100.00;78547.13;5073194;28;20020;-67
2022/02/13 04:00:22;;;;;;;10.60;6.27;;;;;;;-142.75;100.00;78543.19;5071904;28;20501;-68
2022/02/13 04:02:47;;;;;;;15.95;6.95;;;;;;;-142.75;100.00;78543.19;5071985;28;20279;-65
2022/02/13 04:05:13;;;;;;;13.23;6.63;;;;;;;-142.75;100.00;78547.13;5071941;28;20028;-68
2022/02/13 04:07:40;;;;;;;14.93;6.45;;;;;;;-142.75;100.00;78556.97;5073192;28;20021;-68
2022/02/13 04:10:06;;;;;;;14.43;6.03;;;;;;;-142.75;100.00;78553.03;5072541;28;20028;-67
2022/02/13 04:12:31;;;;;;;17.63;6.53;;;;;;;-142.75;100.00;78555.00;5073039;28;20036;-67
2022/02/13 04:14:56;;;;;;;11.43;6.20;;;;;;;-142.75;100.00;78558.94;5073009;28;20024;-68
2022/02/13 04:17:22;;;;;;;20.53;7.80;;;;;;;-142.75;100.00;78566.81;5071600;28;20056;-66
2022/02/13 04:19:47;;;;;;;13.38;6.70;;;;;;;-142.75;100.00;78555.00;5072443;28;20032;-67
2022/02/13 04:22:12;;;;;;;15.43;6.57;;;;;;;-142.75;100.00;78562.88;5072830;28;20036;-68
2022/02/13 04:24:38;;;;;;;17.23;7.28;;;;;;;-142.75;100.00;78570.75;5072665;28;20016;-67
2022/02/13 04:27:04;;;;;;;13.27;6.45;;;;;;;-142.75;100.00;78562.88;5072750;28;20044;-68
2022/02/13 04:29:29;;;;;;;11.57;6.32;;;;;;;-142.75;100.00;78572.72;5072490;28;20445;-69
2022/02/13 04:31:54;;;;;;;13.80;6.25;;;;;;;-142.75;100.00;78560.91;5072896;28;20059;-67
2022/02/13 04:34:20;;;;;;;12.67;6.57;;;;;;;-142.75;100.00;78562.88;5073582;28;20069;-68
2022/02/13 04:36:45;;;;;;;13.38;6.38;;;;;;;-142.75;100.00;78560.91;5072797;28;20032;-66
2022/02/13 04:39:11;;;;;;;15.70;7.22;;;;;;;-142.75;100.00;78566.81;5071494;28;20107;-67
2022/02/13 04:41:36;;;;;;;11.70;6.00;;;;;;;-142.75;100.00;78562.88;5072400;28;20103;-68
2022/02/13 04:44:01;;;;;;;13.20;6.68;;;;;;;-142.75;100.00;78551.06;5072499;28;20024;-68
2022/02/13 04:46:26;;;;;;;11.55;6.40;;;;;;;-142.75;100.00;78553.03;5072431;28;20047;-68
2022/02/13 04:48:52;;;;;;;12.10;6.87;;;;;;;-142.75;100.00;78551.06;5071971;28;20029;-68
2022/02/13 04:51:17;;;;;;;15.43;6.33;;;;;;;-142.75;100.00;78543.19;5072424;28;20263;-68
2022/02/13 04:53:42;;;;;;;12.97;6.53;;;;;;;-142.75;100.00;78558.94;5071027;28;20712;-68
2022/02/13 04:56:08;;;;;;;12.53;6.53;;;;;;;-142.75;100.00;78547.13;5070198;28;20275;-69
2022/02/13 04:58:34;;;;;;;12.75;6.75;;;;;;;-142.75;100.00;78547.13;5070461;28;20267;-67
2022/02/13 05:00:59;;;;;;;;;;;;;;;-142.75;100.00;78547.13;5072404;28;20032;-68
2022/02/13 05:03:24;;;;;;;15.30;6.23;;;;;;;-142.75;100.00;78555.00;5072002;28;20305;-68
2022/02/13 05:05:51;;;;;;;11.68;6.43;;;;;;;-142.75;100.00;78539.25;5071906;28;20478;-68
2022/02/13 05:08:17;;;;;;;12.90;6.50;;;;;;;-142.75;100.00;78537.28;5071573;28;20020;-67
2022/02/13 05:10:42;;;;;;;14.35;6.43;;;;;;;-142.75;100.00;78523.50;5071790;28;20032;-68
2022/02/13 05:13:08;;;;;;;12.73;6.15;;;;;;;-142.75;100.00;78515.63;5071890;28;20032;-67
2022/02/13 05:15:33;;;;;;;13.13;6.27;;;;;;;-142.75;100.00;78511.69;5071698;28;20028;-67
2022/02/13 05:17:58;;;;;;;12.67;6.10;;;;;;;-142.75;100.00;78493.97;5070290;28;20282;-68
2022/02/13 05:20:24;;;;;;;12.98;6.55;;;;;;;-142.75;100.00;78495.94;5071453;28;20036;-68
2022/02/13 05:22:49;;;;;;;11.40;5.80;;;;;;;-142.75;100.00;78488.03;5071628;28;20021;-68
2022/02/13 05:25:14;;;;;;;11.03;5.80;;;;;;;-142.75;100.00;78480.16;5071646;28;20357;-68
2022/02/13 05:27:39;;;;;;;11.60;6.37;;;;;;;-142.75;100.00;78464.41;5071493;28;20267;-67
2022/02/13 05:30:05;;;;;;;9.88;5.55;;;;;;;-142.75;100.00;78464.41;5071247;28;20251;-67
2022/02/13 05:32:31;;;;;;;11.18;6.07;;;;;;;-142.75;100.00;78456.53;5071497;28;20024;-67
2022/02/13 05:34:56;;;;;;;11.07;6.07;;;;;;;-142.75;100.00;78460.47;5071412;28;20070;-68
2022/02/13 05:37:22;;;;;;;14.38;5.88;;;;;;;-142.75;100.00;78444.72;5071409;28;20035;-68
2022/02/13 05:39:47;;;;;;;9.83;5.57;;;;;;;-142.75;100.00;78444.72;5070948;28;20113;-68
2022/02/13 05:42:12;;;;;;;11.30;5.60;;;;;;;-142.75;100.00;78432.91;5071337;28;20270;-68
2022/02/13 05:44:39;;;;;;;10.00;6.07;;;;;;;-142.75;100.00;78417.16;5071235;28;20020;-67
2022/02/13 05:47:05;;;;;;;13.00;6.27;;;;;;;-142.75;100.00;78413.22;5071302;28;20016;-67
2022/02/13 05:49:30;;;;;;;12.97;6.43;;;;;;;-142.75;100.00;78411.25;5069804;28;20040;-68
2022/02/13 05:51:55;;;;;;;10.18;5.43;;;;;;;-142.75;100.00;78425.03;5071203;28;20052;-67
2022/02/13 05:54:21;;;;;;;10.97;5.57;;;;;;;-142.75;100.00;78413.22;5071033;28;20031;-68
2022/02/13 05:56:46;;;;;;;16.20;6.72;;;;;;;-142.75;100.00;78421.09;5071056;28;20766;-67
2022/02/13 05:59:12;;;;;;;10.82;5.93;;;;;;;-142.75;100.00;78423.06;5069408;28;20016;-67
2022/02/13 06:01:37;;;;;;;15.65;5.80;;;;;;;-142.75;100.00;78421.09;5071000;28;20537;-67
2022/02/13 06:04:03;;;;;;;12.10;5.63;;;;;;;-142.75;100.00;78423.06;5070926;28;20406;-67
2022/02/13 06:06:28;;;;;;;14.13;6.35;;;;;;;-142.75;100.00;78413.22;5071003;28;20024;-67
2022/02/13 06:08:54;;;;;;;12.13;6.28;;;;;;;-142.75;100.00;78417.16;5095646;22;20032;-66
2022/02/13 06:11:19;;;;;;;15.13;6.82;;;;;;;-142.75;100.00;78425.03;5045907;28;20032;-67
2022/02/13 06:13:44;;;;;;;11.88;6.60;;;;;;;-142.75;100.00;78428.97;5049344;28;20505;-67
2022/02/13 06:16:10;;;;;;;12.88;6.15;;;;;;;-142.75;100.00;78438.81;5070421;28;20031;-67
2022/02/13 06:18:36;;;;;;;14.63;6.95;;;;;;;-142.75;100.00;78425.03;5070574;28;20024;-67
2022/02/13 06:21:03;;;;;;;14.80;6.05;;;;;;;-142.75;100.00;78427.00;5070655;28;20032;-67
2022/02/13 06:23:28;;;;;;;14.93;5.90;;;;;;;-142.75;100.00;78427.00;5070769;28;20028;-67
2022/02/13 06:25:54;;;;;;;12.80;6.13;;;;;;;-142.75;100.00;78421.09;5070604;28;20025;-68
2022/02/13 06:28:20;;;;;;;13.13;6.80;;;;;;;-142.75;100.00;78425.03;5070492;28;20024;-67
2022/02/13 06:30:45;;;;;;;13.98;6.50;;;;;;;-142.75;100.00;78427.00;5070589;28;20036;-67
2022/02/13 06:33:10;;;;;;;12.20;6.23;;;;;;;-142.75;100.00;78425.03;5070627;28;20024;-68
2022/02/13 06:35:36;;;;;;;15.40;6.13;;;;;;;-142.75;100.00;78427.00;5069478;28;20314;-67
2022/02/13 06:38:02;;;;;;;11.50;5.60;;;;;;;-142.75;100.00;78434.88;5070331;28;20329;-66
2022/02/13 06:40:28;;;;;;;14.70;5.97;;;;;;;-142.75;100.00;78425.03;5070917;28;20028;-66
2022/02/13 06:42:53;;;;;;;11.30;5.78;;;;;;;-142.75;100.00;78428.97;5070981;28;20021;-66
2022/02/13 06:45:19;;;;;;;13.43;6.50;;;;;;;-142.75;100.00;78413.22;5071031;28;20048;-66
2022/02/13 06:47:44;;;;;;;13.35;6.95;;;;;;;-142.75;100.00;78413.22;5070803;28;20055;-66
2022/02/13 06:50:11;;;;;;;13.57;6.78;;;;;;;-142.75;100.00;78405.34;5069335;28;20462;-67
2022/02/13 06:52:36;;;;;;;;;;;;;;;-142.75;100.00;78415.19;5069775;28;20020;-68
2022/02/13 06:55:01;;;;;;;11.00;6.07;;;;;;;-142.75;100.00;78415.19;5068940;28;19916;-67
2022/02/13 06:57:27;;;;;;;15.75;6.90;;;;;;;-142.75;100.00;78421.09;5069192;28;20032;-67
2022/02/13 06:59:53;;;;;;;18.92;8.15;;;;;;;-142.75;100.00;78428.97;5069281;28;20029;-68
2022/02/13 07:02:18;;;;;;;15.02;6.88;;;;;;;-142.75;100.00;78427.00;5072840;28;20539;-67
2022/02/13 07:04:43;;;;;;;11.52;6.10;;;;;;;-142.75;100.00;78427.00;5073678;28;20063;-66
2022/02/13 07:07:09;;;;;;;12.68;6.45;;;;;;;-142.75;100.00;78423.06;5073835;28;20501;-67
2022/02/13 07:09:35;;;;;;;13.43;6.40;;;;;;;-142.75;100.00;78413.22;5072772;28;20111;-67
2022/02/13 07:12:05;;;;;;;13.73;6.90;;;;;;;-142.75;100.00;78405.34;5073695;28;20154;-66
2022/02/13 07:14:34;;;;;;;11.70;5.90;;;;;;;-142.75;100.00;78411.25;5054850;28;20028;-67
2022/02/13 07:17:00;;;;;;;13.80;6.57;;;;;;;-142.75;100.00;78395.47;5053405;28;20028;-67
2022/02/13 07:19:25;;;;;;;10.33;6.00;;;;;;;-142.75;100.00;78389.56;5053692;28;20028;-67
2022/02/13 07:21:51;;;;;;;12.82;6.40;;;;;;;-142.75;100.00;78385.63;5053247;28;20033;-66
2022/02/13 07:24:16;;;;;;;15.47;7.47;;;;;;;-142.75;100.00;78391.53;5052056;28;20039;-67
2022/02/13 07:26:41;;;;;;;14.00;6.63;;;;;;;-142.75;100.00;78395.47;5053322;28;20275;-67
2022/02/13 07:29:09;;;;;;;13.63;6.60;;;;;;;-142.75;100.00;78391.53;5051733;28;20291;-67
2022/02/13 07:31:35;;;;;;;14.67;6.47;;;;;;;-142.75;100.00;78387.59;5052096;28;20443;-67
2022/02/13 07:34:00;;;;;;;;;;;;;;;-142.75;100.00;78389.56;5053600;28;20367;-67
2022/02/13 07:36:26;;;;;;;10.77;6.43;;;;;;;-142.75;100.00;78389.56;5057728;28;19920;-66
2022/02/13 07:38:51;;;;;;;12.43;5.65;;;;;;;-142.75;100.00;78393.50;5071156;28;20547;-67
2022/02/13 07:41:17;;;;;;;13.13;6.78;;;;;;;-142.75;100.00;78387.59;5072986;28;20056;-68
2022/02/13 07:43:42;;;;;;;12.32;6.05;;;;;;;-142.75;100.00;78373.81;5072730;28;20115;-66
2022/02/13 07:46:08;;;;;;;13.02;6.72;;;;;;;-142.75;100.00;78369.88;5073109;28;20031;-67
2022/02/13 07:48:34;;;;;;;14.17;6.47;;;;;;;-142.75;100.00;78362.00;5073176;28;20050;-67
2022/02/13 07:51:00;;;;;;;16.85;6.82;;;;;;;-142.75;100.00;78358.06;5072576;28;20111;-68
2022/02/13 07:53:25;;;;;;;15.70;6.55;;;;;;;-142.75;100.00;78362.00;5072816;28;20134;-66
2022/02/13 07:55:51;;;;;;;12.13;6.73;;;;;;;-142.75;100.00;78358.06;5072385;28;20028;-67
2022/02/13 07:58:16;;;;;;;13.68;5.95;;;;;;;-142.75;100.00;78346.25;5070521;28;20262;-67
2022/02/13 08:00:41;;;;;;;8.63;5.65;;;;;;;-142.75;100.00;78338.38;5070527;28;20056;-67
2022/02/13 08:03:06;;;;;;;10.50;6.00;;;;;;;-142.75;100.00;78334.44;5071946;28;20440;-67
2022/02/13 08:05:32;;;;;;;12.50;6.72;;;;;;;-142.75;100.00;78326.56;5071784;28;20030;-67
2022/02/13 08:07:58;;;;;;;12.25;6.00;;;;;;;-142.75;100.00;78322.63;5056842;28;20029;-67
2022/02/13 08:10:23;;;;;;;12.63;6.35;;;;;;;-142.75;100.00;78328.53;5050398;28;20017;-67
2022/02/13 08:12:48;;;;;;;9.48;5.75;;;;;;;-142.75;100.00;78304.91;5050577;28;20543;-67
2022/02/13 08:15:14;;;;;;;15.37;6.13;;;;;;;-142.75;100.00;78302.94;5050498;28;20139;-67
2022/02/13 08:17:40;;;;;;;13.00;6.72;;;;;;;-142.75;100.00;78291.09;5051687;28;20268;-67
2022/02/13 08:20:07;;;;;;;10.88;6.30;;;;;;;-142.75;100.00;78285.19;5060339;28;20563;-67
2022/02/13 08:22:37;;;;;;;11.93;6.60;;;;;;;-142.75;100.00;78279.28;5071993;28;20032;-67
2022/02/13 08:25:03;;;;;;;13.13;7.23;;;;;;;-142.75;100.00;78267.47;5072056;28;20514;-67
2022/02/13 08:27:28;;;;;;;11.30;6.60;;;;;;;-142.75;100.00;78255.66;5072105;28;20024;-67
2022/02/13 08:29:53;;;;;;;16.02;6.38;;;;;;;-142.75;100.00;78261.56;5071499;28;20039;-67
2022/02/13 08:32:19;;;;;;;11.95;6.55;;;;;;;-142.75;100.00;78241.88;5071899;28;20029;-67
2022/02/13 08:34:48;;;;;;;19.15;6.55;;;;;;;-142.75;100.00;78239.91;5061317;28;20024;-67
2022/02/13 08:37:13;;;;;;;10.87;6.40;;;;;;;-142.75;100.00;78224.16;5052227;28;20025;-67
2022/02/13 08:39:39;;;;;;;13.43;6.25;;;;;;;-142.75;100.00;78220.22;5052340;28;20029;-67
2022/02/13 08:42:05;;;;;;;;;;;;;;;-142.75;100.00;78208.41;5052969;28;20028;-68
2022/02/13 08:44:30;;;;;;;13.83;6.77;;;;;;;-142.75;100.00;78216.28;5051217;28;19912;-68
2022/02/13 08:46:55;;;;;;;11.05;6.65;;;;;;;-142.75;100.00;78198.56;5052519;28;20024;-67
2022/02/13 08:49:21;;;;;;;13.45;6.45;;;;;;;-142.75;100.00;78188.72;5068516;28;20409;-68
2022/02/13 08:51:46;;;;;;;12.80;6.75;;;;;;;-142.75;100.00;78180.81;5072380;28;20020;-68
2022/02/13 08:54:11;;;;;;;11.23;6.38;;;;;;;-142.75;100.00;78174.91;5072320;28;20201;-68
2022/02/13 08:56:37;;;;;;;11.57;6.53;;;;;;;-142.75;100.00;78153.25;5072181;28;20024;-67
2022/02/13 08:59:02;;;;;;;13.80;6.35;;;;;;;-142.75;100.00;78153.25;5070905;28;20032;-68
2022/02/13 09:01:28;;;;;;;10.15;4.28;;;;;;;-142.75;100.00;78161.13;5072894;28;20405;-67
2022/02/13 09:03:53;;;;;;;11.52;6.18;;;;;;;-142.75;100.00;78129.63;5070677;28;20024;-67
2022/02/13 09:06:18;;;;;;;13.52;6.93;;;;;;;-142.75;100.00;78115.84;5071935;28;20474;-68
2022/02/13 09:08:43;;;;;;;11.30;5.78;;;;;;;-142.75;100.00;78109.94;5069173;28;20047;-67
2022/02/13 09:11:09;;;;;;;13.65;6.70;;;;;;;-142.75;100.00;78094.19;5059653;28;20035;-67
2022/02/13 09:13:34;;;;;;;14.00;6.32;;;;;;;-142.75;100.00;78088.28;5069895;28;20488;-67
2022/02/13 09:15:59;;;;;;;12.45;5.80;;;;;;;-142.75;100.00;78054.81;5069817;28;20059;-67
2022/02/13 09:18:25;;;;;;;12.23;5.60;;;;;;;-142.75;100.00;78042.97;5068632;28;20026;-67
2022/02/13 09:20:50;;;;;;;12.02;5.85;;;;;;;-142.75;100.00;78019.34;5069652;28;20478;-67
2022/02/13 09:23:23;;;;;;;14.60;6.33;;;;;;;-142.75;100.00;77991.78;5069674;28;20020;-67
2022/02/13 09:25:49;;;;;;;13.23;5.57;;;;;;;-142.75;100.00;77960.28;5070079;28;20281;-68
2022/02/13 09:28:16;;;;;;;11.77;6.10;;;;;;;-142.75;100.00;77952.41;5070013;28;20055;-68
2022/02/13 09:30:46;;;;;;;10.53;5.60;;;;;;;-142.75;100.00;77932.72;5054421;28;20024;-67
2022/02/13 09:33:12;;;;;;;12.20;5.63;;;;;;;-142.75;100.00;77920.91;5049578;28;20108;-67
2022/02/13 09:35:37;;;;;;;11.93;5.35;;;;;;;-142.75;100.00;77926.81;5050955;28;20032;-67
2022/02/13 09:38:03;;;;;;;8.33;4.63;;;;;;;-142.75;100.00;77930.75;5050599;28;20028;-68
2022/02/13 09:40:33;;;;;;;8.20;4.77;;;;;;;-142.75;100.00;77932.72;5050486;28;20287;-68
2022/02/13 09:43:00;;;;;;;12.00;5.20;;;;;;;-142.75;100.00;77909.06;5050870;28;20052;-68
2022/02/13 09:45:27;;;;;;;8.07;4.87;;;;;;;-142.75;100.00;77901.19;5050827;28;20029;-68
2022/02/13 09:47:53;;;;;;;9.93;4.93;;;;;;;-142.75;100.00;77857.88;5050373;28;20068;-67
2022/02/13 09:50:19;;;;;;;;;;;;;;;-142.75;100.00;77844.09;5051589;28;20033;-68
2022/02/13 09:52:47;;;;;;;8.30;4.53;;;;;;;-142.75;100.00;77840.16;5050559;28;20356;-67
2022/02/13 09:55:13;;;;;;;12.00;4.80;;;;;;;-142.75;100.00;77826.38;5050464;28;20063;-68
2022/02/13 10:00:22;;;;;;;9.53;5.27;;;;;;;-142.75;100.00;77806.69;5050443;28;20044;-68
2022/02/13 10:02:47;;;;;;;11.60;4.57;;;;;;;-142.75;100.00;77816.53;5050389;28;20029;-67
2022/02/13 10:05:20;;;;;;;12.30;5.00;;;;;;;-142.75;100.00;77759.44;5050367;28;20067;-67
2022/02/13 10:07:49;;;;;;;11.20;6.67;;;;;;;-142.75;100.00;77753.53;5049254;28;20279;-67
2022/02/13 10:10:15;;;;;;;7.57;4.47;;;;;;;-142.75;100.00;77761.41;5049299;28;20418;-67
2022/02/13 10:12:43;;;;;;;11.77;5.77;;;;;;;-142.75;100.00;77743.69;5049676;28;20128;-68
2022/02/13 10:15:20;;;;;;;12.43;4.63;;;;;;;-142.75;100.00;77712.16;5068574;28;20383;-68
2022/02/13 10:17:57;;;;;;;12.57;4.43;;;;;;;-142.75;100.00;77737.78;5068672;28;20383;-67
2022/02/13 10:20:42;;;;;;;10.02;5.15;;;;;;;-142.75;100.00;77747.63;5068908;28;20257;-68
2022/02/13 10:23:13;;;;;;;8.87;4.50;;;;;;;-142.75;100.00;77767.31;5067247;28;20028;-68
2022/02/13 10:25:39;;;;;;;9.87;4.90;;;;;;;-142.75;100.00;77696.41;5068638;28;20478;-68
2022/02/13 10:28:10;;;;;;;9.03;5.07;;;;;;;-142.75;100.00;77686.56;5068360;28;20150;-68
2022/02/13 10:30:45;;;;;;;12.80;5.33;;;;;;;-142.75;100.00;77680.66;5055024;28;20025;-68
2022/02/13 10:33:17;;;;;;;8.60;4.83;;;;;;;-142.75;100.00;77678.69;5064893;28;20392;-68
2022/02/13 10:36:00;;;;;;;13.50;4.90;;;;;;;-142.75;100.00;77662.94;5068379;28;20082;-68
2022/02/13 10:38:29;;;;;;;7.50;4.17;;;;;;;-142.75;100.00;77641.28;5068243;28;20442;-68
2022/02/13 10:41:10;;;;;;;11.87;4.20;;;;;;;-142.75;100.00;77637.34;5068226;28;20550;-68
2022/02/13 10:44:05;;;;;;;7.93;4.73;;;;;;;-142.75;100.00;77647.19;5048169;28;20082;-67
2022/02/13 10:46:42;;;;;;;6.60;4.23;;;;;;;-142.75;100.00;77633.41;5048586;28;20115;-67
2022/02/13 10:49:10;;;;;;;7.93;4.70;;;;;;;-142.75;100.00;77645.22;5048622;28;20402;-68
2022/02/13 10:51:36;;;;;;;12.07;5.40;;;;;;;-142.75;100.00;77645.22;5048542;28;20021;-68
2022/02/13 10:54:04;;;;;;;10.18;4.72;;;;;;;-142.75;100.00;77629.47;5048529;28;20776;-68
2022/02/13 10:56:30;;;;;;;10.30;5.27;;;;;;;-142.75;100.00;77590.09;5047433;28;20028;-68
2022/02/13 10:58:55;;;;;;;6.45;4.38;;;;;;;-142.75;100.00;77554.66;5048264;28;20139;-69
2022/02/13 11:01:25;;;;;;;10.30;4.55;;;;;;;-142.75;100.00;77534.97;5055145;28;20028;-68